TimeEDT,TemperatureF,Dew PointF,Humidity,Sea Level PressureIn,VisibilityMPH,Wind Direction,Wind SpeedMPH,Gust SpeedMPH,PrecipitationIn,Events,Conditions,WindDirDegrees,DateUTC
12:35 AM,52.5,43.3,71,30.38,10.0,NNE,5.8,-,N/A,,Clear,20,2012-10-13 04:35:00
12:55 AM,51.6,42.8,72,30.38,10.0,NNE,5.8,-,N/A,,Clear,20,2012-10-13 04:55:00
1:15 AM,50.9,42.1,72,30.39,10.0,NNE,4.6,-,N/A,,Clear,20,2012-10-13 05:15:00
2:35 AM,48.2,41.0,76,30.39,10.0,North,3.5,-,N/A,,Clear,350,2012-10-13 06:35:00
3:15 AM,46.2,40.6,81,30.38,10.0,North,3.5,-,N/A,,Clear,360,2012-10-13 07:15:00
3:35 AM,45.9,40.5,81,30.38,10.0,North,3.5,-,N/A,,Clear,360,2012-10-13 07:35:00
3:55 AM,45.0,40.3,84,30.38,10.0,Calm,Calm,-,N/A,,Clear,0,2012-10-13 07:55:00
4:15 AM,43.9,39.9,86,30.38,10.0,Calm,Calm,-,N/A,,Clear,0,2012-10-13 08:15:00
4:35 AM,44.2,39.9,85,30.39,10.0,Calm,Calm,-,N/A,,Clear,0,2012-10-13 08:35:00
4:55 AM,43.2,39.4,86,30.39,10.0,Calm,Calm,-,N/A,,Clear,0,2012-10-13 08:55:00
5:15 AM,42.1,38.8,88,30.39,10.0,Calm,Calm,-,N/A,,Clear,0,2012-10-13 09:15:00
5:35 AM,41.2,38.5,90,30.40,10.0,Calm,Calm,-,N/A,,Clear,0,2012-10-13 09:35:00
6:35 AM,42.4,39.4,89,30.41,10.0,NNW,4.6,-,N/A,,Clear,340,2012-10-13 10:35:00
6:55 AM,42.8,39.4,88,30.42,10.0,Calm,Calm,-,N/A,,Clear,0,2012-10-13 10:55:00
7:15 AM,42.6,39.0,87,30.44,10.0,North,4.6,-,N/A,,Clear,360,2012-10-13 11:15:00
7:35 AM,42.8,39.0,86,30.44,10.0,North,4.6,-,N/A,,Clear,10,2012-10-13 11:35:00
7:55 AM,43.9,39.6,85,30.45,10.0,North,3.5,-,N/A,,Clear,360,2012-10-13 11:55:00
8:15 AM,45.5,40.3,82,30.45,10.0,NNE,4.6,-,N/A,,Clear,20,2012-10-13 12:15:00
8:55 AM,50.5,41.0,70,30.46,10.0,NE,6.9,16.1,N/A,,Clear,40,2012-10-13 12:55:00
9:15 AM,52.9,40.3,62,30.46,10.0,NE,10.4,-,N/A,,Clear,40,2012-10-13 13:15:00
9:35 AM,54.5,39.9,58,30.47,10.0,NE,8.1,-,N/A,,Clear,40,2012-10-13 13:35:00
9:55 AM,56.1,40.5,56,30.47,10.0,NE,8.1,-,N/A,,Clear,50,2012-10-13 13:55:00
10:55 AM,60.4,42.1,51,30.46,10.0,ENE,11.5,17.3,N/A,,Clear,70,2012-10-13 14:55:00
11:15 AM,61.5,43.0,51,30.46,10.0,ENE,10.4,16.1,N/A,,Clear,70,2012-10-13 15:15:00
11:55 AM,63.7,43.3,48,30.46,10.0,ENE,4.6,-,N/A,,Clear,70,2012-10-13 15:55:00
12:15 PM,64.0,43.3,47,30.45,10.0,ENE,8.1,-,N/A,,Clear,60,2012-10-13 16:15:00
12:35 PM,64.9,43.3,45,30.45,7.0,East,4.6,-,N/A,,Clear,90,2012-10-13 16:35:00
12:55 PM,65.3,43.3,45,30.44,10.0,NE,5.8,-,N/A,,Clear,40,2012-10-13 16:55:00
1:15 PM,65.8,43.2,44,30.44,10.0,North,5.8,-,N/A,,Clear,10,2012-10-13 17:15:00
1:35 PM,66.6,43.3,43,30.42,10.0,North,3.5,-,N/A,,Clear,360,2012-10-13 17:35:00
1:55 PM,66.9,43.2,42,30.42,10.0,NE,4.6,-,N/A,,Clear,50,2012-10-13 17:55:00
2:15 PM,67.3,43.2,42,30.40,10.0,ESE,5.8,-,N/A,,Clear,110,2012-10-13 18:15:00
2:35 PM,67.8,43.9,42,30.39,10.0,SSW,4.6,-,N/A,,Clear,200,2012-10-13 18:35:00
2:55 PM,68.0,43.7,41,30.38,10.0,NE,5.8,-,N/A,,Clear,50,2012-10-13 18:55:00
3:15 PM,68.7,43.7,40,30.39,10.0,NNE,4.6,-,N/A,,Clear,20,2012-10-13 19:15:00
3:35 PM,68.4,43.3,40,30.37,10.0,East,4.6,-,N/A,,Clear,100,2012-10-13 19:35:00
4:35 PM,68.7,44.1,41,30.37,10.0,East,3.5,-,N/A,,Clear,80,2012-10-13 20:35:00
4:55 PM,68.5,43.9,41,30.37,10.0,Calm,Calm,-,N/A,,Clear,0,2012-10-13 20:55:00
5:15 PM,68.2,43.9,41,30.37,10.0,Calm,Calm,-,N/A,,Clear,0,2012-10-13 21:15:00
5:55 PM,66.9,46.0,47,30.36,10.0,ENE,3.5,-,N/A,,Clear,70,2012-10-13 21:55:00
6:35 PM,61.3,52.5,73,30.36,10.0,Calm,Calm,-,N/A,,Clear,0,2012-10-13 22:35:00
6:55 PM,57.0,52.7,85,30.36,10.0,Calm,Calm,-,N/A,,Clear,0,2012-10-13 22:55:00
7:15 PM,54.7,51.8,90,30.36,10.0,Calm,Calm,-,N/A,,Clear,0,2012-10-13 23:15:00
7:35 PM,53.4,50.7,91,30.37,10.0,Calm,Calm,-,N/A,,Clear,0,2012-10-13 23:35:00
7:55 PM,52.3,50.2,92,30.37,10.0,Calm,Calm,-,N/A,,Clear,0,2012-10-13 23:55:00
8:15 PM,51.6,49.6,93,30.37,10.0,Calm,Calm,-,N/A,,Clear,0,2012-10-14 00:15:00
8:35 PM,50.7,49.1,94,30.37,4.0,Calm,Calm,-,N/A,,Clear,0,2012-10-14 00:35:00
9:15 PM,49.3,47.7,94,30.38,1.2,Calm,Calm,-,N/A,,Mist,0,2012-10-14 01:15:00
10:35 PM,47.5,46.2,95,30.38,1.0,Calm,Calm,-,N/A,,Mist,0,2012-10-14 02:35:00
10:55 PM,46.6,45.1,95,30.37,10.0,Calm,Calm,-,N/A,,Clear,0,2012-10-14 02:55:00
11:15 PM,46.8,45.3,95,30.37,0.5,Calm,Calm,-,N/A,Fog,Fog,0,2012-10-14 03:15:00
11:55 PM,46.2,44.8,95,30.36,10.0,Calm,Calm,-,N/A,,Clear,0,2012-10-14 03:55:00